Archival Weather

Granbury Rgnl

Granbury, Texas (KGDJ)

Report from: Monday, January 29, 2024 3:55 PM UTC
Current time: Tuesday, June 18, 2024 11:12 AM UTC

Current weather – Weather history – Daily summaries
Weather forecast

Temperature10.0°C (50.0°F)
Dew point5.1°C (41.2°F)
Winds Calm
Visibility10 mi. (16.1 km)
Clouds Sky clear
Altimeter30.35 in.Hg (1028 mB)
Relative humidity72 %
Density altitude-959 ft. (-292 m)
Remarks Fully automated report
Automated weather observing station with precipitation discriminator
Flight conditions Visual Meteorological Conditions
Raw dataKGDJ 291555Z AUTO 00000KT 10SM CLR 10/05 A3035 RMK AO2 T01000051
An error has occurred. This application may no longer respond until reloaded. Reload 🗙